Time,TemperatureF,DewpointF,PressureIn,WindDirection,WindDirectionDegrees,WindSpeedMPH,WindSpeedGustMPH,Humidity,HourlyPrecipIn,Conditions,Clouds,dailyrainin,SoftwareType,DateUTC
2013-04-05 00:05:00,66.2,25.9,29.99,SE,135,0.4,0.7,22,0.00,,,0.00,WUHU216HW,2013-04-05 07:05:00,
2013-04-05 00:15:00,65.9,26.6,29.99,ESE,113,0.7,0.7,23,0.00,,,0.00,WUHU216HW,2013-04-05 07:15:00,
2013-04-05 00:25:00,65.2,26.1,29.99,ESE,113,0.9,1.6,23,0.00,,,0.00,WUHU216HW,2013-04-05 07:25:00,
2013-04-05 00:36:00,64.8,26.7,29.99,ESE,113,1.1,1.1,24,0.00,,,0.00,WUHU216HW,2013-04-05 07:36:00,
2013-04-05 00:46:00,64.4,26.5,29.99,ESE,113,0.4,0.9,24,0.00,,,0.00,WUHU216HW,2013-04-05 07:46:00,
2013-04-05 00:56:00,64.1,26.2,29.99,East,90,1.6,1.6,24,0.00,,,0.00,WUHU216HW,2013-04-05 07:56:00,
2013-04-05 01:07:00,63.5,25.8,29.99,ESE,113,0.0,1.3,24,0.00,,,0.00,WUHU216HW,2013-04-05 08:07:00,
2013-04-05 01:17:00,63.4,25.6,29.99,East,90,1.8,1.8,24,0.00,,,0.00,WUHU216HW,2013-04-05 08:17:00,
2013-04-05 01:27:00,63.4,25.6,29.99,ESE,113,0.7,2.2,24,0.00,,,0.00,WUHU216HW,2013-04-05 08:27:00,
2013-04-05 01:37:00,63.4,25.6,29.99,ENE,68,0.2,0.9,24,0.00,,,0.00,WUHU216HW,2013-04-05 08:37:00,
2013-04-05 01:47:00,63.0,25.3,29.99,SE,135,0.9,0.9,24,0.00,,,0.00,WUHU216HW,2013-04-05 08:47:00,
2013-04-05 01:57:00,62.8,25.1,29.98,ESE,113,0.0,0.9,24,0.00,,,0.00,WUHU216HW,2013-04-05 08:57:00,
2013-04-05 02:07:00,62.3,25.7,29.99,ESE,113,0.0,0.0,25,0.00,,,0.00,WUHU216HW,2013-04-05 09:07:00,
2013-04-05 02:17:00,61.7,25.1,29.99,SSE,158,0.4,0.7,25,0.00,,,0.00,WUHU216HW,2013-04-05 09:17:00,
2013-04-05 02:27:00,61.0,26.5,29.98,North,0,0.0,1.1,27,0.00,,,0.00,WUHU216HW,2013-04-05 09:27:00,
2013-04-05 02:37:00,60.8,25.4,29.98,ESE,113,0.0,1.6,26,0.00,,,0.00,WUHU216HW,2013-04-05 09:37:00,
2013-04-05 02:47:00,60.8,26.3,29.98,ESE,113,0.0,0.0,27,0.00,,,0.00,WUHU216HW,2013-04-05 09:47:00,
2013-04-05 02:57:00,60.5,27.0,29.97,South,180,0.0,0.9,28,0.00,,,0.00,WUHU216HW,2013-04-05 09:57:00,
2013-04-05 03:07:00,60.3,26.8,29.97,SE,135,0.4,1.1,28,0.00,,,0.00,WUHU216HW,2013-04-05 10:07:00,
2013-04-05 03:17:00,60.1,26.6,29.97,ENE,68,0.2,0.7,28,0.00,,,0.00,WUHU216HW,2013-04-05 10:17:00,
2013-04-05 03:27:00,59.6,26.2,29.97,SSE,158,0.0,0.7,28,0.00,,,0.00,WUHU216HW,2013-04-05 10:27:00,
2013-04-05 03:37:00,59.0,26.7,29.97,NNW,338,0.0,0.7,29,0.00,,,0.00,WUHU216HW,2013-04-05 10:37:00,
2013-04-05 03:48:00,58.7,27.4,29.97,SE,135,0.2,0.4,30,0.00,,,0.00,WUHU216HW,2013-04-05 10:48:00,
2013-04-05 03:58:00,58.5,27.3,29.97,ESE,113,0.0,0.4,30,0.00,,,0.00,WUHU216HW,2013-04-05 10:58:00,
2013-04-05 04:08:00,58.1,27.6,29.97,ESE,113,0.0,0.0,31,0.00,,,0.00,WUHU216HW,2013-04-05 11:08:00,
2013-04-05 04:18:00,57.8,27.3,29.97,SE,135,0.4,0.4,31,0.00,,,0.00,WUHU216HW,2013-04-05 11:18:00,
2013-04-05 04:28:00,57.6,27.1,29.97,ESE,113,0.4,0.4,31,0.00,,,0.00,WUHU216HW,2013-04-05 11:28:00,
2013-04-05 04:38:00,57.2,26.8,29.96,ESE,113,0.0,1.3,31,0.00,,,0.00,WUHU216HW,2013-04-05 11:38:00,
2013-04-05 04:48:00,57.2,26.8,29.97,ESE,113,1.3,1.3,31,0.00,,,0.00,WUHU216HW,2013-04-05 11:48:00,
2013-04-05 04:58:00,56.9,27.2,29.96,ESE,113,0.7,1.8,32,0.00,,,0.00,WUHU216HW,2013-04-05 11:58:00,
2013-04-05 05:08:00,56.7,26.3,29.97,ESE,113,0.4,1.1,31,0.00,,,0.00,WUHU216HW,2013-04-05 12:08:00,
2013-04-05 05:19:00,56.5,26.2,29.96,East,90,0.0,1.1,31,0.00,,,0.00,WUHU216HW,2013-04-05 12:19:00,
2013-04-05 05:29:00,56.3,26.7,29.96,SE,135,0.0,0.4,32,0.00,,,0.00,WUHU216HW,2013-04-05 12:29:00,
2013-04-05 05:39:00,56.0,26.4,29.97,SE,135,0.0,0.2,32,0.00,,,0.00,WUHU216HW,2013-04-05 12:39:00,
2013-04-05 05:49:00,55.4,26.6,29.97,WSW,248,0.0,0.4,33,0.00,,,0.00,WUHU216HW,2013-04-05 12:49:00,
2013-04-05 05:59:00,55.1,28.4,29.97,SSE,158,0.0,0.0,36,0.00,,,0.00,WUHU216HW,2013-04-05 12:59:00,
2013-04-05 06:09:00,54.7,28.8,29.97,NE,45,0.0,0.0,37,0.00,,,0.00,WUHU216HW,2013-04-05 13:09:00,
2013-04-05 06:19:00,54.4,28.4,29.96,ESE,113,0.4,0.9,37,0.00,,,0.00,WUHU216HW,2013-04-05 13:19:00,
2013-04-05 06:29:00,54.4,28.4,29.97,ENE,68,0.0,0.7,37,0.00,,,0.00,WUHU216HW,2013-04-05 13:29:00,
2013-04-05 06:39:00,54.4,29.2,29.97,NW,315,0.0,0.4,38,0.00,,,0.00,WUHU216HW,2013-04-05 13:39:00,
2013-04-05 06:49:00,54.7,30.2,29.98,North,0,0.2,1.6,39,0.00,,,0.00,WUHU216HW,2013-04-05 13:49:00,
2013-04-05 07:00:00,55.6,29.5,29.98,North,0,0.0,0.7,37,0.00,,,0.00,WUHU216HW,2013-04-05 14:00:00,
2013-04-05 07:10:00,56.3,30.3,29.99,West,270,0.7,1.8,37,0.00,,,0.00,WUHU216HW,2013-04-05 14:10:00,
2013-04-05 07:20:00,57.8,30.8,29.99,NW,315,0.4,1.6,36,0.00,,,0.00,WUHU216HW,2013-04-05 14:20:00,
2013-04-05 07:30:00,59.0,30.5,30.00,SW,225,0.0,1.1,34,0.00,,,0.00,WUHU216HW,2013-04-05 14:30:00,
2013-04-05 07:40:00,59.9,29.9,30.00,NW,315,0.0,1.1,32,0.00,,,0.00,WUHU216HW,2013-04-05 14:40:00,
2013-04-05 07:50:00,60.7,29.7,30.00,ESE,113,0.0,1.1,31,0.00,,,0.00,WUHU216HW,2013-04-05 14:50:00,
2013-04-05 08:00:00,61.9,30.2,30.00,ESE,113,1.8,2.2,30,0.00,,,0.00,WUHU216HW,2013-04-05 15:00:00,
2013-04-05 08:10:00,63.4,30.4,30.00,SE,135,4.3,4.3,29,0.00,,,0.00,WUHU216HW,2013-04-05 15:10:00,
2013-04-05 08:20:00,64.8,31.8,30.00,NE,45,2.9,4.3,29,0.00,,,0.00,WUHU216HW,2013-04-05 15:20:00,
2013-04-05 08:30:00,66.4,32.1,30.00,ESE,113,5.4,5.8,28,0.00,,,0.00,WUHU216HW,2013-04-05 15:30:00,
2013-04-05 08:40:00,68.0,31.5,30.00,East,90,2.7,4.0,26,0.00,,,0.00,WUHU216HW,2013-04-05 15:40:00,
2013-04-05 08:50:00,69.5,31.8,30.00,SSE,158,0.4,3.6,25,0.00,,,0.00,WUHU216HW,2013-04-05 15:50:00,
2013-04-05 09:01:00,70.4,31.5,29.99,ESE,113,3.4,3.4,24,0.00,,,0.00,WUHU216HW,2013-04-05 16:01:00,
2013-04-05 09:11:00,72.0,32.9,29.99,SSE,158,2.7,2.9,24,0.00,,,0.00,WUHU216HW,2013-04-05 16:11:00,
2013-04-05 09:21:00,73.1,32.8,29.99,SW,225,1.8,1.8,23,0.00,,,0.00,WUHU216HW,2013-04-05 16:21:00,
2013-04-05 09:31:00,74.5,34.0,29.99,WSW,248,0.4,5.4,23,0.00,,,0.00,WUHU216HW,2013-04-05 16:31:00,
2013-04-05 09:41:00,75.2,33.6,30.00,SE,135,1.8,3.8,22,0.00,,,0.00,WUHU216HW,2013-04-05 16:41:00,
2013-04-05 09:51:00,76.0,34.1,29.99,WSW,248,1.3,4.0,22,0.00,,,0.00,WUHU216HW,2013-04-05 16:51:00,
2013-04-05 10:01:00,76.5,33.6,29.99,WNW,293,2.2,3.4,21,0.00,,,0.00,WUHU216HW,2013-04-05 17:01:00,
2013-04-05 10:11:00,77.0,34.0,29.99,WSW,248,4.5,4.5,21,0.00,,,0.00,WUHU216HW,2013-04-05 17:11:00,
2013-04-05 10:22:00,77.4,34.3,29.99,NW,315,3.6,3.6,21,0.00,,,0.00,WUHU216HW,2013-04-05 17:22:00,
2013-04-05 10:32:00,77.8,34.6,29.98,SW,225,0.4,3.4,21,0.00,,,0.00,WUHU216HW,2013-04-05 17:32:00,
2013-04-05 10:42:00,78.8,35.5,29.98,SSW,203,2.5,4.0,21,0.00,,,0.00,WUHU216HW,2013-04-05 17:42:00,
2013-04-05 10:52:00,79.9,33.7,29.97,NNW,338,1.3,5.4,19,0.00,,,0.00,WUHU216HW,2013-04-05 17:52:00,
2013-04-05 11:02:00,80.5,34.1,29.97,SSE,158,1.3,4.7,19,0.00,,,0.00,WUHU216HW,2013-04-05 18:02:00,
2013-04-05 11:12:00,81.0,33.0,29.97,SSW,203,4.3,4.3,18,0.00,,,0.00,WUHU216HW,2013-04-05 18:12:00,
2013-04-05 11:22:00,81.0,33.0,29.97,WSW,248,2.5,9.2,18,0.00,,,0.00,WUHU216HW,2013-04-05 18:22:00,
2013-04-05 11:32:00,81.9,32.0,29.97,NW,315,4.7,5.6,17,0.00,,,0.00,WUHU216HW,2013-04-05 18:32:00,
2013-04-05 11:42:00,81.9,30.2,29.97,West,270,1.8,5.1,16,0.00,,,0.00,WUHU216HW,2013-04-05 18:42:00,
2013-04-05 11:53:00,82.1,30.4,29.97,SW,225,2.5,3.8,16,0.00,,,0.00,WUHU216HW,2013-04-05 18:53:00,
2013-04-05 12:03:00,82.8,31.0,29.96,SW,225,5.4,5.6,16,0.00,,,0.00,WUHU216HW,2013-04-05 19:03:00,
2013-04-05 12:13:00,83.7,30.0,29.96,WSW,248,4.5,6.3,15,0.00,,,0.00,WUHU216HW,2013-04-05 19:13:00,
2013-04-05 12:23:00,83.9,30.1,29.96,North,0,1.1,4.7,15,0.00,,,0.00,WUHU216HW,2013-04-05 19:23:00,
2013-04-05 12:33:00,84.1,26.8,29.95,WSW,248,3.6,6.9,13,0.00,,,0.00,WUHU216HW,2013-04-05 19:33:00,
2013-04-05 12:43:00,84.1,26.8,29.95,SW,225,8.3,8.3,13,0.00,,,0.00,WUHU216HW,2013-04-05 19:43:00,
2013-04-05 12:53:00,85.1,27.6,29.95,WSW,248,6.7,9.2,13,0.00,,,0.00,WUHU216HW,2013-04-05 19:53:00,
2013-04-05 13:03:00,85.9,28.2,29.94,NNW,338,1.1,6.9,13,0.00,,,0.00,WUHU216HW,2013-04-05 20:03:00,
2013-04-05 13:13:00,85.3,27.8,29.93,South,180,3.4,4.3,13,0.00,,,0.00,WUHU216HW,2013-04-05 20:13:00,
2013-04-05 13:23:00,85.1,27.6,29.93,WSW,248,4.7,4.7,13,0.00,,,0.00,WUHU216HW,2013-04-05 20:23:00,
2013-04-05 13:33:00,85.9,28.2,29.93,WNW,293,2.0,4.7,13,0.00,,,0.00,WUHU216HW,2013-04-05 20:33:00,
2013-04-05 13:44:00,85.7,26.4,29.92,WSW,248,2.2,6.3,12,0.00,,,0.00,WUHU216HW,2013-04-05 20:44:00,
2013-04-05 13:54:00,86.0,28.4,29.92,WSW,248,5.4,7.2,13,0.00,,,0.00,WUHU216HW,2013-04-05 20:54:00,
2013-04-05 14:04:00,86.2,26.8,29.91,West,270,6.5,6.9,12,0.00,,,0.00,WUHU216HW,2013-04-05 21:04:00,
2013-04-05 14:14:00,86.2,28.5,29.91,SW,225,2.0,5.1,13,0.00,,,0.00,WUHU216HW,2013-04-05 21:14:00,
2013-04-05 14:24:00,86.2,26.8,29.90,SSW,203,7.6,8.5,12,0.00,,,0.00,WUHU216HW,2013-04-05 21:24:00,
2013-04-05 14:34:00,86.4,28.6,29.90,WSW,248,4.7,6.5,13,0.00,,,0.00,WUHU216HW,2013-04-05 21:34:00,
2013-04-05 14:44:00,86.4,26.9,29.89,WNW,293,6.9,9.2,12,0.00,,,0.00,WUHU216HW,2013-04-05 21:44:00,
2013-04-05 14:54:00,86.8,29.0,29.89,WSW,248,4.3,8.9,13,0.00,,,0.00,WUHU216HW,2013-04-05 21:54:00,
2013-04-05 15:05:00,86.8,27.3,29.88,WSW,248,3.6,11.6,12,0.00,,,0.00,WUHU216HW,2013-04-05 22:05:00,
2013-04-05 15:15:00,86.8,27.3,29.88,North,0,7.2,11.0,12,0.00,,,0.00,WUHU216HW,2013-04-05 22:15:00,
2013-04-05 15:25:00,86.6,27.1,29.88,NNW,338,4.0,11.4,12,0.00,,,0.00,WUHU216HW,2013-04-05 22:25:00,
2013-04-05 15:35:00,86.4,26.9,29.87,West,270,3.8,8.5,12,0.00,,,0.00,WUHU216HW,2013-04-05 22:35:00,
2013-04-05 15:45:00,86.8,27.3,29.87,WSW,248,5.8,10.7,12,0.00,,,0.00,WUHU216HW,2013-04-05 22:45:00,
2013-04-05 15:55:00,86.4,26.9,29.87,NW,315,4.7,7.6,12,0.00,,,0.00,WUHU216HW,2013-04-05 22:55:00,
2013-04-05 16:05:00,86.8,27.3,29.87,West,270,7.4,9.2,12,0.00,,,0.00,WUHU216HW,2013-04-05 23:05:00,
2013-04-05 16:15:00,86.9,27.4,29.87,WSW,248,7.4,7.8,12,0.00,,,0.00,WUHU216HW,2013-04-05 23:15:00,
2013-04-05 16:25:00,86.8,27.3,29.87,West,270,6.9,9.2,12,0.00,,,0.00,WUHU216HW,2013-04-05 23:25:00,
2013-04-05 16:35:00,86.8,27.3,29.87,SW,225,8.1,8.3,12,0.00,,,0.00,WUHU216HW,2013-04-05 23:35:00,
2013-04-05 16:45:00,86.8,27.3,29.87,WSW,248,1.6,6.7,12,0.00,,,0.00,WUHU216HW,2013-04-05 23:45:00,
2013-04-05 16:55:00,86.4,26.9,29.88,SW,225,4.7,13.6,12,0.00,,,0.00,WUHU216HW,2013-04-05 23:55:00,
2013-04-05 17:05:00,86.0,26.6,29.88,NW,315,4.5,9.6,12,0.00,,,0.00,WUHU216HW,2013-04-06 00:05:00,
2013-04-05 17:15:00,85.7,26.4,29.88,West,270,6.3,9.6,12,0.00,,,0.00,WUHU216HW,2013-04-06 00:15:00,
2013-04-05 17:26:00,85.1,25.9,29.88,WSW,248,6.3,7.8,12,0.00,,,0.00,WUHU216HW,2013-04-06 00:26:00,
2013-04-05 17:36:00,84.8,25.7,29.88,WSW,248,9.8,10.5,12,0.00,,,0.00,WUHU216HW,2013-04-06 00:36:00,
2013-04-05 17:46:00,84.2,26.9,29.88,WNW,293,5.4,11.4,13,0.00,,,0.00,WUHU216HW,2013-04-06 00:46:00,
2013-04-05 17:56:00,84.1,26.8,29.88,WSW,248,5.4,6.3,13,0.00,,,0.00,WUHU216HW,2013-04-06 00:56:00,
2013-04-05 18:07:00,83.5,26.4,29.88,WSW,248,6.7,7.6,13,0.00,,,0.00,WUHU216HW,2013-04-06 01:07:00,
2013-04-05 18:17:00,82.8,25.8,29.88,West,270,7.8,11.4,13,0.00,,,0.00,WUHU216HW,2013-04-06 01:17:00,
2013-04-05 18:27:00,82.3,27.2,29.88,NW,315,5.1,9.8,14,0.00,,,0.00,WUHU216HW,2013-04-06 01:27:00,
2013-04-05 18:37:00,81.7,26.7,29.89,North,0,5.6,9.4,14,0.00,,,0.00,WUHU216HW,2013-04-06 01:37:00,
2013-04-05 18:47:00,81.0,27.8,29.89,West,270,6.0,7.2,15,0.00,,,0.00,WUHU216HW,2013-04-06 01:47:00,
2013-04-05 18:57:00,80.5,27.4,29.89,WNW,293,3.6,6.3,15,0.00,,,0.00,WUHU216HW,2013-04-06 01:57:00,
2013-04-05 19:07:00,79.9,28.6,29.89,SW,225,1.8,6.5,16,0.00,,,0.00,WUHU216HW,2013-04-06 02:07:00,
2013-04-05 19:17:00,79.2,28.0,29.89,WSW,248,1.6,3.4,16,0.00,,,0.00,WUHU216HW,2013-04-06 02:17:00,
2013-04-05 19:27:00,78.5,29.1,29.89,WSW,248,1.1,2.5,17,0.00,,,0.00,WUHU216HW,2013-04-06 02:27:00,
2013-04-05 19:37:00,77.9,28.6,29.90,WSW,248,1.3,2.7,17,0.00,,,0.00,WUHU216HW,2013-04-06 02:37:00,
2013-04-05 19:47:00,77.4,29.9,29.90,West,270,3.1,4.7,18,0.00,,,0.00,WUHU216HW,2013-04-06 02:47:00,
2013-04-05 19:57:00,76.9,29.5,29.90,West,270,0.9,2.0,18,0.00,,,0.00,WUHU216HW,2013-04-06 02:57:00,
2013-04-05 20:07:00,76.3,30.7,29.91,West,270,0.9,2.2,19,0.00,,,0.00,WUHU216HW,2013-04-06 03:07:00,
2013-04-05 20:17:00,75.6,30.2,29.91,WNW,293,0.9,2.0,19,0.00,,,0.00,WUHU216HW,2013-04-06 03:17:00,
2013-04-05 20:28:00,75.2,32.5,29.92,West,270,0.4,2.5,21,0.00,,,0.00,WUHU216HW,2013-04-06 03:28:00,
2013-04-05 20:38:00,74.5,32.0,29.92,West,270,0.7,1.6,21,0.00,,,0.00,WUHU216HW,2013-04-06 03:38:00,
2013-04-05 20:48:00,73.8,31.3,29.93,West,270,0.9,1.3,21,0.00,,,0.00,WUHU216HW,2013-04-06 03:48:00,
2013-04-05 20:58:00,73.1,31.8,29.93,West,270,1.6,1.6,22,0.00,,,0.00,WUHU216HW,2013-04-06 03:58:00,
2013-04-05 21:08:00,72.4,31.2,29.93,WSW,248,0.2,1.3,22,0.00,,,0.00,WUHU216HW,2013-04-06 04:08:00,
2013-04-05 21:18:00,71.6,31.5,29.93,WSW,248,0.4,0.4,23,0.00,,,0.00,WUHU216HW,2013-04-06 04:18:00,
2013-04-05 21:28:00,70.7,30.8,29.94,WSW,248,0.0,1.1,23,0.00,,,0.00,WUHU216HW,2013-04-06 04:28:00,
2013-04-05 21:38:00,70.2,31.3,29.94,WSW,248,0.4,1.3,24,0.00,,,0.00,WUHU216HW,2013-04-06 04:38:00,
2013-04-05 21:48:00,69.7,30.9,29.95,SW,225,0.0,0.9,24,0.00,,,0.00,WUHU216HW,2013-04-06 04:48:00,
2013-04-05 21:58:00,69.1,30.4,29.95,SW,225,0.4,1.6,24,0.00,,,0.00,WUHU216HW,2013-04-06 04:58:00,
2013-04-05 22:08:00,69.1,31.4,29.95,SW,225,0.0,0.7,25,0.00,,,0.00,WUHU216HW,2013-04-06 05:08:00,
2013-04-05 22:18:00,68.8,31.2,29.95,WSW,248,0.0,0.0,25,0.00,,,0.00,WUHU216HW,2013-04-06 05:18:00,
2013-04-05 22:29:00,68.4,30.8,29.95,West,270,0.0,0.4,25,0.00,,,0.00,WUHU216HW,2013-04-06 05:29:00,
2013-04-05 22:39:00,68.0,31.5,29.96,WSW,248,3.1,3.1,26,0.00,,,0.00,WUHU216HW,2013-04-06 05:39:00,
2013-04-05 22:49:00,68.6,32.0,29.96,SW,225,1.8,4.0,26,0.00,,,0.00,WUHU216HW,2013-04-06 05:49:00,
2013-04-05 22:59:00,69.1,31.4,29.96,WSW,248,2.5,3.4,25,0.00,,,0.00,WUHU216HW,2013-04-06 05:59:00,
2013-04-05 23:09:00,69.5,31.8,29.96,NW,315,1.8,2.7,25,0.00,,,0.00,WUHU216HW,2013-04-06 06:09:00,
2013-04-05 23:19:00,69.3,31.6,29.96,West,270,1.1,2.7,25,0.00,,,0.00,WUHU216HW,2013-04-06 06:19:00,
2013-04-05 23:29:00,69.1,30.4,29.96,WNW,293,2.5,2.7,24,0.00,,,0.00,WUHU216HW,2013-04-06 06:29:00,
2013-04-05 23:39:00,68.8,30.2,29.96,West,270,1.1,2.2,24,0.00,,,0.00,WUHU216HW,2013-04-06 06:39:00,
2013-04-05 23:49:00,68.2,29.7,29.96,WSW,248,1.1,1.8,24,0.00,,,0.00,WUHU216HW,2013-04-06 06:49:00,
2013-04-05 23:59:00,67.5,29.1,29.96,WSW,248,0.0,1.1,24,0.00,,,0.00,WUHU216HW,2013-04-06 06:59:00,